Terminal Aerodrome Forecast
Issued by NWS Lake Charles, LA

Home | Current Version | Previous Version | Text Only | Print | Product List | Glossary On
Versions: 1 2 3 4 5 6 7 8 9 10 11 12 13 14 15 16
000
FTUS44 KLCH 260520
TAFAEX
TAF
KAEX 260520Z 2606/2706 17011KT P6SM SCT015 BKN035
      TEMPO 2606/2608 BKN015
     FM260800 18012KT P6SM OVC015
      TEMPO 2609/2613 OVC007
     FM261500 18015G23KT P6SM OVC025
     FM261800 19019G29KT P6SM VCTS SCT025 BKN035CB
      TEMPO 2700/2703 VRB25G40KT 1SM +TSRA OVC008CB
     FM270300 33012KT P6SM FEW250=

USA.gov is the U.S. government's official web portal to all federal, state and local government web resources and services.